createdAt,value
2018-11-04T00:01:42.490Z,1.50
2018-11-04T00:04:09.703Z,0.90
2018-11-04T00:06:36.748Z,1.70
2018-11-04T00:09:04.242Z,1.37
2018-11-04T00:11:32.515Z,2.43
2018-11-04T00:14:00.227Z,2.23
2018-11-04T00:16:27.098Z,1.63
2018-11-04T00:18:53.900Z,2.07
2018-11-04T00:21:20.583Z,3.97
2018-11-04T00:23:48.090Z,1.77
2018-11-04T00:26:14.937Z,2.23
2018-11-04T00:28:42.129Z,4.27
2018-11-04T00:31:08.990Z,2.40
2018-11-04T00:33:35.646Z,3.77
2018-11-04T00:36:02.357Z,2.30
2018-11-04T00:38:30.650Z,1.30
2018-11-04T00:40:57.325Z,2.50
2018-11-04T00:43:23.991Z,2.13
2018-11-04T00:45:50.705Z,1.43
2018-11-04T00:48:17.502Z,3.40
2018-11-04T00:50:44.387Z,1.27
2018-11-04T00:53:11.107Z,2.73
2018-11-04T00:55:37.816Z,2.57
2018-11-04T00:58:04.535Z,2.80
2018-11-04T01:00:31.177Z,1.50
2018-11-04T01:02:58.376Z,1.97
2018-11-04T01:05:25.808Z,2.40
2018-11-04T01:07:53.048Z,2.87
2018-11-04T01:10:19.754Z,2.10
2018-11-04T01:12:46.576Z,1.97
2018-11-04T01:15:13.443Z,4.87
2018-11-04T01:17:40.325Z,3.30
2018-11-04T01:20:07.045Z,2.37
2018-11-04T01:22:33.754Z,2.60
2018-11-04T01:25:00.487Z,3.33
2018-11-04T01:27:27.201Z,2.77
2018-11-04T01:29:54.043Z,2.33
2018-11-04T01:32:21.483Z,2.90
2018-11-04T01:34:48.159Z,3.23
2018-11-04T01:37:15.716Z,1.90
2018-11-04T01:39:42.425Z,1.57
2018-11-04T01:42:09.119Z,1.47
2018-11-04T01:44:35.918Z,2.87
2018-11-04T01:47:03.365Z,2.50
2018-11-04T01:49:30.251Z,1.87
2018-11-04T01:51:57.124Z,2.97
2018-11-04T01:54:23.784Z,3.17
2018-11-04T01:56:50.459Z,3.87
2018-11-04T01:59:17.187Z,3.33
2018-11-04T02:01:44.695Z,4.63
2018-11-04T02:04:12.155Z,2.30
2018-11-04T02:06:38.881Z,2.97
2018-11-04T02:09:05.631Z,2.10
2018-11-04T02:11:32.540Z,3.80
2018-11-04T02:13:59.388Z,2.27
2018-11-04T02:16:26.085Z,2.63
2018-11-04T02:18:52.822Z,1.17
2018-11-04T02:21:19.478Z,2.63
2018-11-04T02:23:46.256Z,4.63
2018-11-04T02:26:12.943Z,3.23
2018-11-04T02:28:39.642Z,1.20
2018-11-04T02:31:06.471Z,2.90
2018-11-04T02:33:34.300Z,1.57
2018-11-04T02:36:01.724Z,2.33
2018-11-04T02:38:28.732Z,2.40
2018-11-04T02:40:55.409Z,3.70
2018-11-04T02:43:22.860Z,1.97
2018-11-04T02:45:49.608Z,2.10
2018-11-04T02:48:16.324Z,1.60
2018-11-04T02:50:43.157Z,1.50
2018-11-04T02:53:09.859Z,1.67
2018-11-04T02:55:36.519Z,2.10
2018-11-04T02:58:03.220Z,4.67
2018-11-04T03:00:29.900Z,3.30
2018-11-04T03:02:57.296Z,3.67
2018-11-04T03:05:24.155Z,5.23
2018-11-04T03:07:50.847Z,0.73
2018-11-04T03:10:17.552Z,3.93
2018-11-04T03:12:44.413Z,2.37
2018-11-04T03:15:11.832Z,3.17
2018-11-04T03:17:38.531Z,3.03
2018-11-04T03:20:05.381Z,1.50
2018-11-04T03:22:32.066Z,2.93
2018-11-04T03:24:58.753Z,2.63
2018-11-04T03:27:25.564Z,2.43
2018-11-04T03:29:52.258Z,2.33
2018-11-04T03:32:18.980Z,3.30
2018-11-04T03:34:45.878Z,3.03
2018-11-04T03:37:13.372Z,1.43
2018-11-04T03:39:40.064Z,1.77
2018-11-04T03:42:06.884Z,2.07
2018-11-04T03:44:33.573Z,3.83
2018-11-04T03:47:01.021Z,3.03
2018-11-04T03:49:27.897Z,2.10
2018-11-04T03:51:54.637Z,3.93
2018-11-04T03:54:21.411Z,3.97
2018-11-04T03:56:48.157Z,2.50
2018-11-04T03:59:14.866Z,3.67
2018-11-04T04:01:41.677Z,1.30
2018-11-04T04:04:09.120Z,2.73
2018-11-04T04:06:35.823Z,3.20
2018-11-04T04:09:03.566Z,1.67
2018-11-04T04:11:30.213Z,2.90
2018-11-04T04:13:56.931Z,4.70
2018-11-04T04:16:23.679Z,2.57
2018-11-04T04:18:50.344Z,3.67
2018-11-04T04:21:17.034Z,1.53
2018-11-04T04:23:43.783Z,3.20
2018-11-04T04:26:11.228Z,1.33
2018-11-04T04:28:37.912Z,3.53
2018-11-04T04:31:04.710Z,2.83
2018-11-04T04:33:31.367Z,2.83
2018-11-04T04:35:59.040Z,3.40
2018-11-04T04:38:26.150Z,2.97
2018-11-04T04:40:53.640Z,2.67
2018-11-04T04:43:20.304Z,3.37
2018-11-04T04:45:47.143Z,2.53
2018-11-04T04:48:13.830Z,2.37
2018-11-04T04:50:40.503Z,1.53
2018-11-04T04:53:07.242Z,2.13
2018-11-04T04:55:33.981Z,1.73
2018-11-04T04:58:00.667Z,3.70
2018-11-04T05:00:27.524Z,4.13
2018-11-04T05:02:54.210Z,4.60
2018-11-04T05:05:20.888Z,1.07
2018-11-04T05:07:47.611Z,3.83
2018-11-04T05:10:14.307Z,2.70
2018-11-04T05:12:41.871Z,2.63
2018-11-04T05:15:09.305Z,4.17
2018-11-04T05:17:35.976Z,2.13
2018-11-04T05:20:02.793Z,4.50
2018-11-04T05:22:30.245Z,4.20
2018-11-04T05:24:57.674Z,1.33
2018-11-04T05:27:24.528Z,2.60
2018-11-04T05:29:51.198Z,1.60
2018-11-04T05:32:17.923Z,2.37
2018-11-04T05:34:44.665Z,1.50
2018-11-04T05:37:11.375Z,1.60
2018-11-04T05:39:38.111Z,2.93
2018-11-04T05:42:04.999Z,3.10
2018-11-04T05:44:32.450Z,2.50
2018-11-04T05:46:59.899Z,5.17
2018-11-04T05:49:26.786Z,2.77
2018-11-04T05:51:53.500Z,2.37
2018-11-04T05:54:20.933Z,3.03
2018-11-04T05:56:47.631Z,2.23
2018-11-04T05:59:14.399Z,4.17
2018-11-04T06:01:41.085Z,3.50
2018-11-04T06:04:07.758Z,2.17
2018-11-04T06:06:34.585Z,1.87
2018-11-04T06:09:01.287Z,1.77
2018-11-04T06:11:28.720Z,1.83
2018-11-04T06:13:55.516Z,3.40
2018-11-04T06:16:22.218Z,2.43
2018-11-04T06:18:48.909Z,3.50
2018-11-04T06:21:15.709Z,2.63
2018-11-04T06:23:42.446Z,5.37
2018-11-04T06:26:09.907Z,2.57
2018-11-04T06:28:37.557Z,1.70
2018-11-04T06:31:04.299Z,2.10
2018-11-04T06:33:31.788Z,4.40
2018-11-04T06:35:58.640Z,3.97
2018-11-04T06:38:25.336Z,5.67
2018-11-04T06:40:52.040Z,4.33
2018-11-04T06:43:18.778Z,3.17
2018-11-04T06:45:45.667Z,1.83
2018-11-04T06:48:12.397Z,3.70
2018-11-04T06:50:39.077Z,2.00
2018-11-04T06:53:05.868Z,2.13
2018-11-04T06:55:32.500Z,3.20
2018-11-04T06:57:59.921Z,3.87
2018-11-04T07:00:26.601Z,3.43
2018-11-04T07:02:53.264Z,4.43
2018-11-04T07:05:19.974Z,2.60
2018-11-04T07:07:46.678Z,2.73
2018-11-04T07:10:13.341Z,2.87
2018-11-04T07:12:40.158Z,1.77
2018-11-04T07:15:27.397Z,1.93
2018-11-04T07:17:54.172Z,4.17
2018-11-04T07:20:20.834Z,1.90
2018-11-04T07:22:48.232Z,2.53
2018-11-04T07:25:15.019Z,2.07
2018-11-04T07:27:41.691Z,2.77
2018-11-04T07:30:08.411Z,1.90
2018-11-04T07:32:35.892Z,1.73
2018-11-04T07:35:02.620Z,2.40
2018-11-04T07:37:30.001Z,2.63
2018-11-04T07:39:56.851Z,3.93
2018-11-04T07:42:23.544Z,4.00
2018-11-04T07:44:50.915Z,3.53
2018-11-04T07:47:17.703Z,2.97
2018-11-04T07:49:44.355Z,3.07
2018-11-04T07:52:10.987Z,4.17
2018-11-04T07:54:37.705Z,2.27
2018-11-04T07:57:04.467Z,3.47
2018-11-04T07:59:31.168Z,2.50
2018-11-04T08:01:57.965Z,2.27
2018-11-04T08:04:24.648Z,5.20
2018-11-04T08:06:51.308Z,3.10
2018-11-04T08:09:18.089Z,3.33
2018-11-04T08:11:45.497Z,3.93
2018-11-04T08:14:12.231Z,2.53
2018-11-04T08:16:39.045Z,3.57
2018-11-04T08:19:05.727Z,3.13
2018-11-04T08:21:32.430Z,3.23
2018-11-04T08:23:59.252Z,3.57
2018-11-04T08:26:26.653Z,2.23
2018-11-04T08:28:53.312Z,2.37
2018-11-04T08:31:20.096Z,6.13
2018-11-04T08:33:53.451Z,2.37
2018-11-04T08:36:20.221Z,1.80
2018-11-04T08:38:47.640Z,1.93
2018-11-04T08:41:14.581Z,4.97
2018-11-04T08:43:41.603Z,3.87
2018-11-04T08:46:08.840Z,1.70
2018-11-04T08:48:36.140Z,3.70
2018-11-04T08:51:03.860Z,4.53
2018-11-04T08:53:31.689Z,1.83
2018-11-04T08:55:58.787Z,3.30
2018-11-04T08:58:25.615Z,2.17
2018-11-04T09:00:52.324Z,2.63
2018-11-04T09:03:19.113Z,1.53
2018-11-04T09:05:45.854Z,2.37
2018-11-04T09:08:12.536Z,1.63
2018-11-04T09:10:41.574Z,2.77
2018-11-04T09:13:08.440Z,1.93
2018-11-04T09:15:35.347Z,2.43
2018-11-04T09:18:02.831Z,3.77
2018-11-04T09:20:29.507Z,2.97
2018-11-04T09:22:56.313Z,2.70
2018-11-04T09:25:23.229Z,3.17
2018-11-04T09:27:50.060Z,1.70
2018-11-04T09:30:17.994Z,1.53
2018-11-04T09:32:44.713Z,2.80
2018-11-04T09:35:11.413Z,4.03
2018-11-04T09:37:38.234Z,3.47
2018-11-04T09:40:05.688Z,2.47
2018-11-04T09:42:33.138Z,1.83
2018-11-04T09:44:59.978Z,1.83
2018-11-04T09:47:26.656Z,1.87
2018-11-04T09:49:53.359Z,1.70
2018-11-04T09:52:20.181Z,4.43
2018-11-04T09:54:46.985Z,1.70
2018-11-04T09:57:13.673Z,3.27
2018-11-04T09:59:40.395Z,2.77
2018-11-04T10:02:07.109Z,1.43
2018-11-04T10:04:34.508Z,1.47
2018-11-04T10:07:01.389Z,3.67
2018-11-04T10:09:28.064Z,1.90
2018-11-04T10:11:54.767Z,2.17
2018-11-04T10:14:22.269Z,1.83
2018-11-04T10:16:48.917Z,2.03
2018-11-04T10:19:15.757Z,2.17
2018-11-04T10:21:42.438Z,2.90
2018-11-04T10:24:09.842Z,2.10
2018-11-04T10:26:36.543Z,3.27
2018-11-04T10:29:19.128Z,2.77
2018-11-04T10:31:45.934Z,1.70
2018-11-04T10:34:12.653Z,1.83
2018-11-04T10:36:39.498Z,2.13
2018-11-04T10:39:06.226Z,2.93
2018-11-04T10:41:33.696Z,2.03
2018-11-04T10:44:00.639Z,2.07
2018-11-04T10:46:27.322Z,3.63
2018-11-04T10:48:54.017Z,3.43
2018-11-04T10:51:21.479Z,2.87
2018-11-04T10:53:49.125Z,1.73
2018-11-04T10:56:16.827Z,1.90
2018-11-04T10:58:43.544Z,2.17
2018-11-04T11:01:11.219Z,3.03
2018-11-04T11:03:38.026Z,3.10
2018-11-04T11:06:05.525Z,1.67
2018-11-04T11:08:32.274Z,1.80
2018-11-04T11:10:59.000Z,2.77
2018-11-04T11:13:25.761Z,2.27
2018-11-04T11:15:52.446Z,3.20
2018-11-04T11:18:19.119Z,2.80
2018-11-04T11:20:46.068Z,3.33
2018-11-04T11:23:12.807Z,2.10
2018-11-04T11:25:40.320Z,2.33
2018-11-04T11:28:07.300Z,1.40
2018-11-04T11:30:33.983Z,2.33
2018-11-04T11:33:00.649Z,1.40
2018-11-04T11:35:43.224Z,2.13
2018-11-04T11:38:10.067Z,2.37
2018-11-04T11:40:36.816Z,2.47
2018-11-04T11:43:03.607Z,3.03
2018-11-04T11:45:30.316Z,2.10
2018-11-04T11:47:57.156Z,2.00
2018-11-04T11:50:23.876Z,1.73
2018-11-04T11:52:50.546Z,1.93
2018-11-04T11:55:17.469Z,2.00
2018-11-04T11:57:44.551Z,1.80
2018-11-04T12:00:12.024Z,3.60
2018-11-04T12:02:40.502Z,2.70
2018-11-04T12:05:08.265Z,2.27
2018-11-04T12:07:34.967Z,3.70
2018-11-04T12:10:02.657Z,3.00
2018-11-04T12:12:44.964Z,2.17
2018-11-04T12:15:12.566Z,3.97
2018-11-04T12:17:39.305Z,2.27
2018-11-04T12:20:05.988Z,2.93
2018-11-04T12:22:32.787Z,1.83
2018-11-04T12:24:59.478Z,4.83
2018-11-04T12:27:26.951Z,1.93
2018-11-04T12:29:53.610Z,2.13
2018-11-04T12:32:20.274Z,1.73
2018-11-04T12:34:46.981Z,1.47
2018-11-04T12:37:13.668Z,1.40
2018-11-04T12:39:40.318Z,1.50
2018-11-04T12:42:07.365Z,2.30
2018-11-04T12:44:34.000Z,1.87
2018-11-04T12:47:00.680Z,5.17
2018-11-04T12:49:27.410Z,2.93
2018-11-04T12:51:54.828Z,2.10
2018-11-04T12:54:21.493Z,1.70
2018-11-04T12:56:48.431Z,1.80
2018-11-04T12:59:15.097Z,2.20
2018-11-04T13:01:41.726Z,2.00
2018-11-04T13:04:09.141Z,1.70
2018-11-04T13:06:35.837Z,2.27
2018-11-04T13:09:02.783Z,1.20
2018-11-04T13:11:29.539Z,2.03
2018-11-04T13:13:56.906Z,1.30
2018-11-04T13:16:23.636Z,1.20
2018-11-04T13:18:50.268Z,2.23
2018-11-04T13:21:17.022Z,0.93
2018-11-04T13:23:43.815Z,1.80
2018-11-04T13:26:10.471Z,1.87
2018-11-04T13:28:52.103Z,2.00
2018-11-04T13:31:18.773Z,1.90
2018-11-04T13:33:45.428Z,2.23
2018-11-04T13:36:12.368Z,1.53
2018-11-04T13:38:38.959Z,1.50
2018-11-04T13:41:05.608Z,1.60
2018-11-04T13:43:32.331Z,1.97
2018-11-04T13:45:58.995Z,1.30
2018-11-04T13:48:25.667Z,1.30
2018-11-04T13:50:53.191Z,1.30
2018-11-04T13:53:19.844Z,0.90
2018-11-04T13:55:47.490Z,1.33
2018-11-04T13:58:14.194Z,1.07
2018-11-04T14:00:40.838Z,1.20
2018-11-04T14:03:07.658Z,1.13
2018-11-04T14:05:35.158Z,1.37
2018-11-04T14:08:02.645Z,0.80
2018-11-04T14:10:30.043Z,0.87
2018-11-04T14:12:56.792Z,1.43
2018-11-04T14:15:23.440Z,2.70
2018-11-04T14:17:50.187Z,2.87
2018-11-04T14:20:16.889Z,1.00
2018-11-04T14:22:43.919Z,1.83
2018-11-04T14:25:11.727Z,1.60
2018-11-04T14:27:38.430Z,1.70
2018-11-04T14:30:05.150Z,2.50
2018-11-04T14:32:32.746Z,0.97
2018-11-04T14:34:59.422Z,0.90
2018-11-04T14:37:26.094Z,0.73
2018-11-04T14:39:53.666Z,1.20
2018-11-04T14:42:20.338Z,2.40
2018-11-04T14:44:47.038Z,1.13
2018-11-04T14:47:13.883Z,1.77
2018-11-04T14:49:41.376Z,1.60
2018-11-04T14:52:08.148Z,0.90
2018-11-04T14:54:49.906Z,1.20
2018-11-04T14:57:16.565Z,3.07
2018-11-04T14:59:43.296Z,1.97
2018-11-04T15:02:10.001Z,1.33
2018-11-04T15:04:36.693Z,1.03
2018-11-04T15:07:03.511Z,1.30
2018-11-04T15:09:30.256Z,2.00
2018-11-04T15:11:56.939Z,1.40
2018-11-04T15:14:24.513Z,0.87
2018-11-04T15:16:51.921Z,1.37
2018-11-04T15:19:18.618Z,1.30
2018-11-04T15:21:45.443Z,1.73
2018-11-04T15:24:12.451Z,1.60
2018-11-04T15:26:39.159Z,2.70
2018-11-04T15:29:05.960Z,0.97
2018-11-04T15:31:32.608Z,1.13
2018-11-04T15:34:00.017Z,2.53
2018-11-04T15:36:27.645Z,0.70
2018-11-04T15:38:54.372Z,1.07
2018-11-04T15:41:21.756Z,1.23
2018-11-04T15:43:48.549Z,2.10
2018-11-04T15:46:15.286Z,2.10
2018-11-04T15:51:33.462Z,1.83
2018-11-04T15:54:01.060Z,3.07
2018-11-04T15:56:27.715Z,1.43
2018-11-04T15:58:54.416Z,2.40
2018-11-04T16:01:21.968Z,1.10
2018-11-04T16:03:49.375Z,1.10
2018-11-04T16:06:16.115Z,1.00
2018-11-04T16:08:42.911Z,1.23
2018-11-04T16:11:09.574Z,0.93
2018-11-04T16:13:36.256Z,2.20
2018-11-04T16:16:03.889Z,1.20
2018-11-04T16:18:30.743Z,1.30
2018-11-04T16:20:57.367Z,1.53
2018-11-04T16:23:24.136Z,3.30
2018-11-04T16:25:50.785Z,1.77
2018-11-04T16:28:17.446Z,2.10
2018-11-04T16:30:44.264Z,3.90
2018-11-04T16:33:10.950Z,1.07
2018-11-04T16:35:37.632Z,1.43
2018-11-04T16:38:04.500Z,2.70
2018-11-04T16:40:31.916Z,0.80
2018-11-04T16:42:58.557Z,1.20
2018-11-04T16:45:25.217Z,1.17
2018-11-04T16:47:52.627Z,0.80
2018-11-04T16:50:19.479Z,1.10
2018-11-04T16:52:46.233Z,4.83
2018-11-04T16:55:12.933Z,1.03
2018-11-04T16:57:39.748Z,1.47
2018-11-04T17:00:07.194Z,2.53
2018-11-04T17:02:33.848Z,2.50
2018-11-04T17:05:01.390Z,1.70
2018-11-04T17:07:28.117Z,1.20
2018-11-04T17:09:54.789Z,0.80
2018-11-04T17:12:22.212Z,1.13
2018-11-04T17:14:48.898Z,1.23
2018-11-04T17:17:16.515Z,1.10
2018-11-04T17:19:43.186Z,2.40
2018-11-04T17:22:10.600Z,1.70
2018-11-04T17:24:38.158Z,2.43
2018-11-04T17:27:04.835Z,2.50
2018-11-04T17:29:31.514Z,2.07
2018-11-04T17:31:58.277Z,2.10
2018-11-04T17:34:24.921Z,1.30
2018-11-04T17:36:51.600Z,2.30
2018-11-04T17:39:18.420Z,2.17
2018-11-04T17:41:45.113Z,1.10
2018-11-04T17:44:11.825Z,1.50
2018-11-04T17:46:38.743Z,1.30
2018-11-04T17:49:05.447Z,2.60
2018-11-04T17:51:32.151Z,1.60
2018-11-04T17:53:59.002Z,1.40
2018-11-04T17:56:25.987Z,1.40
2018-11-04T17:58:52.663Z,2.70
2018-11-04T18:01:20.185Z,4.37
2018-11-04T18:03:46.897Z,2.63
2018-11-04T18:06:13.528Z,2.40
2018-11-04T18:08:40.346Z,2.50
2018-11-04T18:11:07.724Z,1.80
2018-11-04T18:13:34.447Z,1.83
2018-11-04T18:16:01.290Z,2.40
2018-11-04T18:18:27.932Z,1.57
2018-11-04T18:23:48.838Z,4.25
2018-11-04T18:26:31.513Z,5.40
2018-11-04T18:28:58.060Z,3.20
2018-11-04T18:31:24.746Z,2.50
2018-11-04T18:33:51.558Z,3.73
2018-11-04T18:36:18.206Z,4.40
2018-11-04T18:38:45.603Z,3.83
2018-11-04T18:41:12.435Z,3.10
2018-11-04T18:43:39.107Z,4.97
2018-11-04T18:46:05.803Z,3.67
2018-11-04T18:48:32.615Z,3.70
2018-11-04T18:50:59.347Z,6.10
2018-11-04T18:53:26.112Z,4.53
2018-11-04T18:55:53.554Z,3.20
2018-11-04T18:58:20.477Z,4.07
2018-11-04T19:00:47.189Z,3.13
2018-11-04T19:03:13.827Z,3.33
2018-11-04T19:05:40.653Z,3.13
2018-11-04T19:08:07.371Z,3.37
2018-11-04T19:10:34.807Z,4.90
2018-11-04T19:13:01.508Z,3.43
2018-11-04T19:15:28.188Z,3.63
2018-11-04T19:17:54.989Z,3.73
2018-11-04T19:20:21.638Z,4.13
2018-11-04T19:22:48.331Z,4.87
2018-11-04T19:25:16.458Z,3.43
2018-11-04T19:27:43.185Z,3.07
2018-11-04T19:30:10.010Z,3.40
2018-11-04T19:32:36.665Z,4.13
2018-11-04T19:35:03.447Z,4.63
2018-11-04T19:37:30.477Z,5.27
2018-11-04T19:39:57.928Z,2.97
2018-11-04T19:42:24.656Z,3.27
2018-11-04T19:44:52.080Z,3.53
2018-11-04T19:47:18.777Z,4.07
2018-11-04T19:49:45.604Z,3.60
2018-11-04T19:52:12.355Z,3.20
2018-11-04T19:54:39.105Z,4.03
2018-11-04T19:57:06.766Z,3.70
2018-11-04T19:59:33.435Z,6.47
2018-11-04T20:02:00.932Z,6.10
2018-11-04T20:04:27.756Z,6.30
2018-11-04T20:06:54.426Z,5.83
2018-11-04T20:09:21.094Z,4.73
2018-11-04T20:11:49.113Z,4.17
2018-11-04T20:14:15.802Z,4.10
2018-11-04T20:16:43.252Z,4.43
2018-11-04T20:19:10.231Z,4.80
2018-11-04T20:21:36.917Z,7.33
2018-11-04T20:24:04.153Z,3.50
2018-11-04T20:26:34.276Z,3.63
2018-11-04T20:29:00.979Z,3.20
2018-11-04T20:31:27.768Z,4.53
2018-11-04T20:33:54.651Z,4.33
2018-11-04T20:36:21.273Z,3.77
2018-11-04T20:38:48.163Z,4.13
2018-11-04T20:41:31.922Z,3.70
2018-11-04T20:43:59.355Z,4.47
2018-11-04T20:46:26.083Z,4.47
2018-11-04T20:48:58.818Z,5.90
2018-11-04T20:51:25.526Z,4.37
2018-11-04T20:53:52.343Z,3.47
2018-11-04T20:56:19.097Z,3.53
2018-11-04T20:58:45.779Z,3.13
2018-11-04T21:01:12.644Z,3.90
2018-11-04T21:03:39.389Z,3.47
2018-11-04T21:06:06.290Z,4.17
2018-11-04T21:08:33.122Z,4.10
2018-11-04T21:10:59.824Z,3.90
2018-11-04T21:13:27.237Z,4.93
2018-11-04T21:15:54.051Z,3.93
2018-11-04T21:18:20.887Z,3.93
2018-11-04T21:20:47.617Z,4.37
2018-11-04T21:23:14.280Z,3.63
2018-11-04T21:25:41.325Z,4.17
2018-11-04T21:28:08.022Z,4.00
2018-11-04T21:30:34.522Z,3.40
2018-11-04T21:33:01.355Z,4.20
2018-11-04T21:35:28.985Z,4.63
2018-11-04T21:37:56.020Z,5.40
2018-11-04T21:40:22.822Z,3.80
2018-11-04T21:42:49.822Z,5.60
2018-11-04T21:45:16.232Z,4.40
2018-11-04T21:47:43.780Z,4.47
2018-11-04T21:50:10.562Z,4.97
2018-11-04T21:52:37.515Z,4.40
2018-11-04T21:55:04.232Z,4.10
2018-11-04T21:57:30.997Z,6.50
2018-11-04T21:59:57.844Z,4.60
2018-11-04T22:02:24.625Z,6.17
2018-11-04T22:04:52.131Z,4.90
2018-11-04T22:07:18.811Z,8.23
2018-11-04T22:09:45.502Z,11.07
2018-11-04T22:12:12.190Z,9.93
2018-11-04T22:14:38.955Z,16.03
2018-11-04T22:17:05.662Z,8.50
2018-11-04T22:19:32.480Z,19.43
2018-11-04T22:21:59.167Z,20.70
2018-11-04T22:24:25.837Z,10.23
2018-11-04T22:26:52.667Z,7.33
2018-11-04T22:29:19.369Z,8.83
2018-11-04T22:31:46.052Z,18.73
2018-11-04T22:34:12.750Z,18.50
2018-11-04T22:36:39.586Z,19.33
2018-11-04T22:39:06.451Z,18.23
2018-11-04T22:41:33.119Z,11.87
2018-11-04T22:43:59.771Z,25.67
2018-11-04T22:46:26.571Z,16.53
2018-11-04T22:49:00.167Z,14.10
2018-11-04T22:51:26.876Z,14.07
2018-11-04T22:53:53.553Z,8.63
2018-11-04T22:56:20.248Z,23.70
2018-11-04T22:58:47.099Z,9.17
2018-11-04T23:01:13.831Z,14.33
2018-11-04T23:03:40.517Z,13.23
2018-11-04T23:06:07.980Z,12.30
2018-11-04T23:08:35.429Z,20.23
2018-11-04T23:11:02.888Z,13.77
2018-11-04T23:13:29.802Z,15.07
2018-11-04T23:15:56.467Z,20.53
2018-11-04T23:18:23.185Z,15.17
2018-11-04T23:20:49.929Z,13.63
2018-11-04T23:23:16.591Z,14.53
2018-11-04T23:25:44.030Z,12.10
2018-11-04T23:28:10.816Z,16.30
2018-11-04T23:30:37.459Z,18.93
2018-11-04T23:33:04.141Z,9.70
2018-11-04T23:35:30.809Z,12.93
2018-11-04T23:37:58.224Z,9.50
2018-11-04T23:40:24.942Z,12.57
2018-11-04T23:42:51.721Z,7.97
2018-11-04T23:45:18.418Z,17.47
2018-11-04T23:47:45.135Z,7.70
2018-11-04T23:50:11.955Z,10.97
2018-11-04T23:52:39.380Z,11.63
2018-11-04T23:55:06.117Z,10.20
2018-11-04T23:57:32.934Z,12.63
2018-11-04T23:59:59.607Z,8.23
